sensor_id;sensor_type;location;lat;lon;timestamp;P1;durP1;ratioP1;P2;durP2;ratioP2
30147;SDS011;16960;49.404;8.248;2023-09-07T00:00:41;5.23;;;4.53;;
30147;SDS011;16960;49.404;8.248;2023-09-07T00:03:08;5.50;;;4.33;;
30147;SDS011;16960;49.404;8.248;2023-09-07T00:05:35;4.10;;;3.80;;
30147;SDS011;16960;49.404;8.248;2023-09-07T00:08:03;5.70;;;4.47;;
30147;SDS011;16960;49.404;8.248;2023-09-07T00:10:31;5.20;;;4.70;;
30147;SDS011;16960;49.404;8.248;2023-09-07T00:13:00;5.03;;;4.57;;
30147;SDS011;16960;49.404;8.248;2023-09-07T00:15:27;4.90;;;4.47;;
30147;SDS011;16960;49.404;8.248;2023-09-07T00:17:55;5.13;;;4.67;;
30147;SDS011;16960;49.404;8.248;2023-09-07T00:20:22;5.50;;;4.37;;
30147;SDS011;16960;49.404;8.248;2023-09-07T00:22:50;5.63;;;5.00;;
30147;SDS011;16960;49.404;8.248;2023-09-07T00:25:18;6.20;;;4.17;;
30147;SDS011;16960;49.404;8.248;2023-09-07T00:27:45;5.00;;;4.60;;
30147;SDS011;16960;49.404;8.248;2023-09-07T00:30:12;5.43;;;4.87;;
30147;SDS011;16960;49.404;8.248;2023-09-07T00:32:39;5.57;;;5.07;;
30147;SDS011;16960;49.404;8.248;2023-09-07T00:35:06;4.87;;;4.47;;
30147;SDS011;16960;49.404;8.248;2023-09-07T00:37:34;5.50;;;4.90;;
30147;SDS011;16960;49.404;8.248;2023-09-07T00:40:02;5.40;;;4.90;;
30147;SDS011;16960;49.404;8.248;2023-09-07T00:42:35;4.97;;;4.47;;
30147;SDS011;16960;49.404;8.248;2023-09-07T00:45:02;5.00;;;4.43;;
30147;SDS011;16960;49.404;8.248;2023-09-07T00:47:29;5.17;;;4.67;;
30147;SDS011;16960;49.404;8.248;2023-09-07T00:49:59;4.67;;;4.17;;
30147;SDS011;16960;49.404;8.248;2023-09-07T00:52:26;4.63;;;4.17;;
30147;SDS011;16960;49.404;8.248;2023-09-07T00:54:54;4.63;;;4.10;;
30147;SDS011;16960;49.404;8.248;2023-09-07T00:57:21;4.50;;;3.90;;
30147;SDS011;16960;49.404;8.248;2023-09-07T00:59:49;4.53;;;4.13;;
30147;SDS011;16960;49.404;8.248;2023-09-07T01:02:16;4.30;;;4.00;;
30147;SDS011;16960;49.404;8.248;2023-09-07T01:04:43;4.63;;;4.23;;
30147;SDS011;16960;49.404;8.248;2023-09-07T01:07:13;4.40;;;3.90;;
30147;SDS011;16960;49.404;8.248;2023-09-07T01:09:44;5.10;;;4.40;;
30147;SDS011;16960;49.404;8.248;2023-09-07T01:12:14;5.50;;;5.00;;
30147;SDS011;16960;49.404;8.248;2023-09-07T01:14:41;4.30;;;3.87;;
30147;SDS011;16960;49.404;8.248;2023-09-07T01:17:09;5.17;;;4.67;;
30147;SDS011;16960;49.404;8.248;2023-09-07T01:19:38;5.23;;;4.57;;
30147;SDS011;16960;49.404;8.248;2023-09-07T01:22:07;4.80;;;4.17;;
30147;SDS011;16960;49.404;8.248;2023-09-07T01:24:35;4.70;;;4.30;;
30147;SDS011;16960;49.404;8.248;2023-09-07T01:27:05;4.73;;;4.33;;
30147;SDS011;16960;49.404;8.248;2023-09-07T01:29:32;4.77;;;4.47;;
30147;SDS011;16960;49.404;8.248;2023-09-07T01:31:59;4.80;;;4.23;;
30147;SDS011;16960;49.404;8.248;2023-09-07T01:34:26;5.20;;;4.70;;
30147;SDS011;16960;49.404;8.248;2023-09-07T01:36:52;4.90;;;4.50;;
30147;SDS011;16960;49.404;8.248;2023-09-07T01:39:21;4.57;;;4.20;;
30147;SDS011;16960;49.404;8.248;2023-09-07T01:41:49;4.73;;;4.33;;
30147;SDS011;16960;49.404;8.248;2023-09-07T01:44:16;4.90;;;4.50;;
30147;SDS011;16960;49.404;8.248;2023-09-07T01:46:43;5.20;;;4.70;;
30147;SDS011;16960;49.404;8.248;2023-09-07T01:49:09;5.30;;;4.80;;
30147;SDS011;16960;49.404;8.248;2023-09-07T01:51:36;4.67;;;4.37;;
30147;SDS011;16960;49.404;8.248;2023-09-07T01:54:03;5.07;;;4.67;;
30147;SDS011;16960;49.404;8.248;2023-09-07T01:56:33;5.07;;;4.60;;
30147;SDS011;16960;49.404;8.248;2023-09-07T01:58:59;5.20;;;4.70;;
30147;SDS011;16960;49.404;8.248;2023-09-07T02:01:27;4.77;;;3.97;;
30147;SDS011;16960;49.404;8.248;2023-09-07T02:03:56;4.80;;;4.30;;
30147;SDS011;16960;49.404;8.248;2023-09-07T02:06:23;5.47;;;4.57;;
30147;SDS011;16960;49.404;8.248;2023-09-07T02:08:50;4.90;;;4.50;;
30147;SDS011;16960;49.404;8.248;2023-09-07T02:11:17;5.07;;;4.67;;
30147;SDS011;16960;49.404;8.248;2023-09-07T02:13:45;5.27;;;4.87;;
30147;SDS011;16960;49.404;8.248;2023-09-07T02:16:13;5.03;;;4.60;;
30147;SDS011;16960;49.404;8.248;2023-09-07T02:18:41;5.67;;;4.67;;
30147;SDS011;16960;49.404;8.248;2023-09-07T02:21:10;5.10;;;4.70;;
30147;SDS011;16960;49.404;8.248;2023-09-07T02:23:37;5.47;;;4.97;;
30147;SDS011;16960;49.404;8.248;2023-09-07T02:26:05;5.23;;;4.73;;
30147;SDS011;16960;49.404;8.248;2023-09-07T02:28:32;4.53;;;4.23;;
30147;SDS011;16960;49.404;8.248;2023-09-07T02:31:03;4.43;;;4.03;;
30147;SDS011;16960;49.404;8.248;2023-09-07T02:33:31;5.13;;;4.07;;
30147;SDS011;16960;49.404;8.248;2023-09-07T02:35:58;6.10;;;4.40;;
30147;SDS011;16960;49.404;8.248;2023-09-07T02:38:25;6.50;;;4.57;;
30147;SDS011;16960;49.404;8.248;2023-09-07T02:40:52;5.87;;;4.63;;
30147;SDS011;16960;49.404;8.248;2023-09-07T02:43:19;4.70;;;4.30;;
30147;SDS011;16960;49.404;8.248;2023-09-07T02:45:48;4.97;;;4.47;;
30147;SDS011;16960;49.404;8.248;2023-09-07T02:48:16;4.73;;;4.40;;
30147;SDS011;16960;49.404;8.248;2023-09-07T02:50:43;4.70;;;4.30;;
30147;SDS011;16960;49.404;8.248;2023-09-07T02:53:13;4.57;;;4.17;;
30147;SDS011;16960;49.404;8.248;2023-09-07T02:55:40;4.80;;;4.40;;
30147;SDS011;16960;49.404;8.248;2023-09-07T02:58:07;5.10;;;4.70;;
30147;SDS011;16960;49.404;8.248;2023-09-07T03:00:34;5.83;;;4.53;;
30147;SDS011;16960;49.404;8.248;2023-09-07T03:03:00;4.63;;;4.23;;
30147;SDS011;16960;49.404;8.248;2023-09-07T03:05:29;5.27;;;4.80;;
30147;SDS011;16960;49.404;8.248;2023-09-07T03:07:56;5.70;;;5.20;;
30147;SDS011;16960;49.404;8.248;2023-09-07T03:10:23;5.37;;;4.87;;
30147;SDS011;16960;49.404;8.248;2023-09-07T03:12:49;5.43;;;4.97;;
30147;SDS011;16960;49.404;8.248;2023-09-07T03:15:16;6.07;;;5.47;;
30147;SDS011;16960;49.404;8.248;2023-09-07T03:17:43;5.37;;;4.97;;
30147;SDS011;16960;49.404;8.248;2023-09-07T03:20:10;4.63;;;4.33;;
30147;SDS011;16960;49.404;8.248;2023-09-07T03:22:41;5.17;;;4.67;;
30147;SDS011;16960;49.404;8.248;2023-09-07T03:25:08;5.40;;;4.90;;
30147;SDS011;16960;49.404;8.248;2023-09-07T03:27:36;4.70;;;4.30;;
30147;SDS011;16960;49.404;8.248;2023-09-07T03:30:04;5.60;;;5.10;;
30147;SDS011;16960;49.404;8.248;2023-09-07T03:32:33;5.70;;;5.20;;
30147;SDS011;16960;49.404;8.248;2023-09-07T03:35:00;5.27;;;4.77;;
30147;SDS011;16960;49.404;8.248;2023-09-07T03:37:27;4.87;;;4.47;;
30147;SDS011;16960;49.404;8.248;2023-09-07T03:39:56;7.47;;;4.83;;
30147;SDS011;16960;49.404;8.248;2023-09-07T03:42:22;5.00;;;4.60;;
30147;SDS011;16960;49.404;8.248;2023-09-07T03:44:50;4.70;;;4.30;;
30147;SDS011;16960;49.404;8.248;2023-09-07T03:47:17;5.40;;;4.33;;
30147;SDS011;16960;49.404;8.248;2023-09-07T03:49:43;6.07;;;5.47;;
30147;SDS011;16960;49.404;8.248;2023-09-07T03:52:10;5.03;;;4.63;;
30147;SDS011;16960;49.404;8.248;2023-09-07T03:54:37;5.60;;;5.10;;
30147;SDS011;16960;49.404;8.248;2023-09-07T03:57:06;4.30;;;4.00;;
30147;SDS011;16960;49.404;8.248;2023-09-07T03:59:33;5.60;;;4.60;;
30147;SDS011;16960;49.404;8.248;2023-09-07T04:01:59;5.70;;;5.17;;
30147;SDS011;16960;49.404;8.248;2023-09-07T04:04:26;5.23;;;4.20;;
30147;SDS011;16960;49.404;8.248;2023-09-07T04:06:53;4.57;;;4.17;;
30147;SDS011;16960;49.404;8.248;2023-09-07T04:09:20;4.90;;;4.50;;
30147;SDS011;16960;49.404;8.248;2023-09-07T04:11:47;5.63;;;4.73;;
30147;SDS011;16960;49.404;8.248;2023-09-07T04:14:15;4.43;;;4.07;;
30147;SDS011;16960;49.404;8.248;2023-09-07T04:16:42;5.57;;;4.40;;
30147;SDS011;16960;49.404;8.248;2023-09-07T04:19:09;5.13;;;4.67;;
30147;SDS011;16960;49.404;8.248;2023-09-07T04:21:36;5.87;;;4.83;;
30147;SDS011;16960;49.404;8.248;2023-09-07T04:24:04;5.83;;;5.23;;
30147;SDS011;16960;49.404;8.248;2023-09-07T04:26:31;5.13;;;4.63;;
30147;SDS011;16960;49.404;8.248;2023-09-07T04:28:59;4.87;;;4.47;;
30147;SDS011;16960;49.404;8.248;2023-09-07T04:31:27;5.40;;;4.90;;
30147;SDS011;16960;49.404;8.248;2023-09-07T04:33:54;5.50;;;5.00;;
30147;SDS011;16960;49.404;8.248;2023-09-07T04:36:21;5.13;;;4.57;;
30147;SDS011;16960;49.404;8.248;2023-09-07T04:38:48;4.80;;;4.40;;
30147;SDS011;16960;49.404;8.248;2023-09-07T04:41:15;5.60;;;5.10;;
30147;SDS011;16960;49.404;8.248;2023-09-07T04:43:42;5.33;;;4.83;;
30147;SDS011;16960;49.404;8.248;2023-09-07T04:46:09;5.30;;;4.80;;
30147;SDS011;16960;49.404;8.248;2023-09-07T04:48:38;5.53;;;4.80;;
30147;SDS011;16960;49.404;8.248;2023-09-07T04:51:07;8.93;;;5.07;;
30147;SDS011;16960;49.404;8.248;2023-09-07T04:53:36;4.90;;;4.50;;
30147;SDS011;16960;49.404;8.248;2023-09-07T04:56:03;5.70;;;5.20;;
30147;SDS011;16960;49.404;8.248;2023-09-07T04:58:31;5.20;;;4.70;;
30147;SDS011;16960;49.404;8.248;2023-09-07T05:01:01;4.63;;;4.23;;
30147;SDS011;16960;49.404;8.248;2023-09-07T05:03:29;5.00;;;4.60;;
30147;SDS011;16960;49.404;8.248;2023-09-07T05:05:57;6.10;;;5.20;;
30147;SDS011;16960;49.404;8.248;2023-09-07T05:08:24;4.80;;;4.30;;
30147;SDS011;16960;49.404;8.248;2023-09-07T05:10:54;5.57;;;4.97;;
30147;SDS011;16960;49.404;8.248;2023-09-07T05:13:22;5.00;;;4.60;;
30147;SDS011;16960;49.404;8.248;2023-09-07T05:15:49;4.87;;;4.47;;
30147;SDS011;16960;49.404;8.248;2023-09-07T05:18:17;4.80;;;4.40;;
30147;SDS011;16960;49.404;8.248;2023-09-07T05:20:44;5.23;;;4.73;;
30147;SDS011;16960;49.404;8.248;2023-09-07T05:23:15;4.70;;;4.30;;
30147;SDS011;16960;49.404;8.248;2023-09-07T05:25:44;7.93;;;4.90;;
30147;SDS011;16960;49.404;8.248;2023-09-07T05:28:12;5.30;;;4.90;;
30147;SDS011;16960;49.404;8.248;2023-09-07T05:30:39;5.30;;;4.80;;
30147;SDS011;16960;49.404;8.248;2023-09-07T05:33:06;5.63;;;5.10;;
30147;SDS011;16960;49.404;8.248;2023-09-07T05:35:33;4.90;;;4.50;;
30147;SDS011;16960;49.404;8.248;2023-09-07T05:38:00;6.43;;;5.07;;
30147;SDS011;16960;49.404;8.248;2023-09-07T05:40:29;4.67;;;4.27;;
30147;SDS011;16960;49.404;8.248;2023-09-07T05:42:56;5.50;;;4.73;;
30147;SDS011;16960;49.404;8.248;2023-09-07T05:45:23;5.70;;;5.20;;
30147;SDS011;16960;49.404;8.248;2023-09-07T05:47:49;6.40;;;5.47;;
30147;SDS011;16960;49.404;8.248;2023-09-07T05:50:16;6.17;;;5.07;;
30147;SDS011;16960;49.404;8.248;2023-09-07T05:52:43;5.00;;;4.60;;
30147;SDS011;16960;49.404;8.248;2023-09-07T05:55:10;4.80;;;3.93;;
30147;SDS011;16960;49.404;8.248;2023-09-07T05:57:38;4.93;;;4.50;;
30147;SDS011;16960;49.404;8.248;2023-09-07T06:00:06;5.63;;;5.13;;
30147;SDS011;16960;49.404;8.248;2023-09-07T06:02:33;4.70;;;4.30;;
30147;SDS011;16960;49.404;8.248;2023-09-07T06:05:00;7.63;;;4.53;;
30147;SDS011;16960;49.404;8.248;2023-09-07T06:07:27;5.13;;;4.67;;
30147;SDS011;16960;49.404;8.248;2023-09-07T06:09:54;5.83;;;5.00;;
30147;SDS011;16960;49.404;8.248;2023-09-07T06:12:23;6.17;;;5.17;;
30147;SDS011;16960;49.404;8.248;2023-09-07T06:14:52;7.00;;;4.80;;
30147;SDS011;16960;49.404;8.248;2023-09-07T06:17:19;5.50;;;4.80;;
30147;SDS011;16960;49.404;8.248;2023-09-07T06:19:45;5.83;;;5.30;;
30147;SDS011;16960;49.404;8.248;2023-09-07T06:22:12;5.27;;;4.40;;
30147;SDS011;16960;49.404;8.248;2023-09-07T06:24:39;5.60;;;5.07;;
30147;SDS011;16960;49.404;8.248;2023-09-07T06:27:06;4.70;;;4.30;;
30147;SDS011;16960;49.404;8.248;2023-09-07T06:29:33;4.73;;;4.10;;
30147;SDS011;16960;49.404;8.248;2023-09-07T06:32:21;4.80;;;4.37;;
30147;SDS011;16960;49.404;8.248;2023-09-07T06:34:48;4.70;;;4.30;;
30147;SDS011;16960;49.404;8.248;2023-09-07T06:37:15;4.53;;;4.13;;
30147;SDS011;16960;49.404;8.248;2023-09-07T06:39:42;4.83;;;4.43;;
30147;SDS011;16960;49.404;8.248;2023-09-07T06:42:09;5.43;;;4.67;;
30147;SDS011;16960;49.404;8.248;2023-09-07T06:44:36;4.53;;;4.13;;
30147;SDS011;16960;49.404;8.248;2023-09-07T06:47:03;7.00;;;4.87;;
30147;SDS011;16960;49.404;8.248;2023-09-07T06:49:32;6.00;;;4.80;;
30147;SDS011;16960;49.404;8.248;2023-09-07T06:51:59;6.00;;;4.87;;
30147;SDS011;16960;49.404;8.248;2023-09-07T06:54:28;7.20;;;5.10;;
30147;SDS011;16960;49.404;8.248;2023-09-07T06:56:56;4.53;;;4.10;;
30147;SDS011;16960;49.404;8.248;2023-09-07T06:59:23;7.20;;;5.00;;
30147;SDS011;16960;49.404;8.248;2023-09-07T07:01:50;6.70;;;4.80;;
30147;SDS011;16960;49.404;8.248;2023-09-07T07:04:17;5.50;;;5.00;;
30147;SDS011;16960;49.404;8.248;2023-09-07T07:06:45;5.00;;;4.30;;
30147;SDS011;16960;49.404;8.248;2023-09-07T07:09:12;5.70;;;4.90;;
30147;SDS011;16960;49.404;8.248;2023-09-07T07:11:39;4.70;;;4.30;;
30147;SDS011;16960;49.404;8.248;2023-09-07T07:14:08;4.20;;;3.90;;
30147;SDS011;16960;49.404;8.248;2023-09-07T07:16:36;5.53;;;5.03;;
30147;SDS011;16960;49.404;8.248;2023-09-07T07:19:03;5.40;;;4.87;;
30147;SDS011;16960;49.404;8.248;2023-09-07T07:21:30;10.50;;;4.60;;
30147;SDS011;16960;49.404;8.248;2023-09-07T07:23:58;5.00;;;4.60;;
30147;SDS011;16960;49.404;8.248;2023-09-07T07:26:25;4.90;;;4.50;;
30147;SDS011;16960;49.404;8.248;2023-09-07T07:28:52;5.03;;;4.63;;
30147;SDS011;16960;49.404;8.248;2023-09-07T07:31:19;5.27;;;4.77;;
30147;SDS011;16960;49.404;8.248;2023-09-07T07:33:46;5.57;;;5.07;;
30147;SDS011;16960;49.404;8.248;2023-09-07T07:36:14;6.70;;;4.93;;
30147;SDS011;16960;49.404;8.248;2023-09-07T07:38:41;5.40;;;4.20;;
30147;SDS011;16960;49.404;8.248;2023-09-07T07:41:09;5.57;;;5.07;;
30147;SDS011;16960;49.404;8.248;2023-09-07T07:43:36;4.77;;;4.37;;
30147;SDS011;16960;49.404;8.248;2023-09-07T07:46:03;5.27;;;4.77;;
30147;SDS011;16960;49.404;8.248;2023-09-07T07:48:30;5.83;;;5.33;;
30147;SDS011;16960;49.404;8.248;2023-09-07T07:51:02;5.67;;;5.17;;
30147;SDS011;16960;49.404;8.248;2023-09-07T07:53:29;6.27;;;5.60;;
30147;SDS011;16960;49.404;8.248;2023-09-07T07:55:56;5.80;;;5.10;;
30147;SDS011;16960;49.404;8.248;2023-09-07T07:58:25;5.50;;;5.00;;
30147;SDS011;16960;49.404;8.248;2023-09-07T08:00:52;5.90;;;5.30;;
30147;SDS011;16960;49.404;8.248;2023-09-07T08:03:19;5.30;;;4.83;;
30147;SDS011;16960;49.404;8.248;2023-09-07T08:05:46;7.80;;;5.27;;
30147;SDS011;16960;49.404;8.248;2023-09-07T08:08:13;5.93;;;5.30;;
30147;SDS011;16960;49.404;8.248;2023-09-07T08:10:40;5.60;;;5.07;;
30147;SDS011;16960;49.404;8.248;2023-09-07T08:13:07;6.10;;;5.50;;
30147;SDS011;16960;49.404;8.248;2023-09-07T08:15:35;6.87;;;5.97;;
30147;SDS011;16960;49.404;8.248;2023-09-07T08:18:03;7.90;;;5.20;;
30147;SDS011;16960;49.404;8.248;2023-09-07T08:20:31;5.27;;;4.87;;
30147;SDS011;16960;49.404;8.248;2023-09-07T08:22:58;4.93;;;4.53;;
30147;SDS011;16960;49.404;8.248;2023-09-07T08:25:28;6.57;;;5.93;;
30147;SDS011;16960;49.404;8.248;2023-09-07T08:27:55;5.63;;;5.13;;
30147;SDS011;16960;49.404;8.248;2023-09-07T08:30:24;6.57;;;5.97;;
30147;SDS011;16960;49.404;8.248;2023-09-07T08:32:53;7.83;;;5.20;;
30147;SDS011;16960;49.404;8.248;2023-09-07T08:35:20;5.37;;;4.97;;
30147;SDS011;16960;49.404;8.248;2023-09-07T08:37:52;5.53;;;4.80;;
30147;SDS011;16960;49.404;8.248;2023-09-07T08:40:18;5.07;;;4.57;;
30147;SDS011;16960;49.404;8.248;2023-09-07T08:42:47;6.30;;;5.67;;
30147;SDS011;16960;49.404;8.248;2023-09-07T08:45:14;7.03;;;4.73;;
30147;SDS011;16960;49.404;8.248;2023-09-07T08:47:47;7.20;;;5.33;;
30147;SDS011;16960;49.404;8.248;2023-09-07T08:50:17;7.63;;;4.90;;
30147;SDS011;16960;49.404;8.248;2023-09-07T08:52:46;5.93;;;4.67;;
30147;SDS011;16960;49.404;8.248;2023-09-07T08:55:16;5.57;;;4.90;;
30147;SDS011;16960;49.404;8.248;2023-09-07T08:57:43;7.80;;;5.83;;
30147;SDS011;16960;49.404;8.248;2023-09-07T09:00:10;4.93;;;4.40;;
30147;SDS011;16960;49.404;8.248;2023-09-07T09:02:41;5.57;;;4.60;;
30147;SDS011;16960;49.404;8.248;2023-09-07T09:05:08;6.00;;;4.27;;
30147;SDS011;16960;49.404;8.248;2023-09-07T09:07:37;5.13;;;4.70;;
30147;SDS011;16960;49.404;8.248;2023-09-07T09:10:05;5.33;;;4.83;;
30147;SDS011;16960;49.404;8.248;2023-09-07T09:12:32;5.50;;;5.00;;
30147;SDS011;16960;49.404;8.248;2023-09-07T09:15:00;5.17;;;4.60;;
30147;SDS011;16960;49.404;8.248;2023-09-07T09:17:28;5.03;;;4.63;;
30147;SDS011;16960;49.404;8.248;2023-09-07T09:19:55;4.90;;;4.50;;
30147;SDS011;16960;49.404;8.248;2023-09-07T09:22:22;5.17;;;4.67;;
30147;SDS011;16960;49.404;8.248;2023-09-07T09:24:51;5.33;;;4.90;;
30147;SDS011;16960;49.404;8.248;2023-09-07T09:27:17;5.00;;;4.50;;
30147;SDS011;16960;49.404;8.248;2023-09-07T09:29:44;4.37;;;3.97;;
30147;SDS011;16960;49.404;8.248;2023-09-07T09:32:13;4.53;;;4.23;;
30147;SDS011;16960;49.404;8.248;2023-09-07T09:34:43;5.10;;;4.60;;
30147;SDS011;16960;49.404;8.248;2023-09-07T09:37:13;5.67;;;5.17;;
30147;SDS011;16960;49.404;8.248;2023-09-07T09:39:41;4.43;;;4.00;;
30147;SDS011;16960;49.404;8.248;2023-09-07T09:42:11;4.80;;;4.30;;
30147;SDS011;16960;49.404;8.248;2023-09-07T09:44:39;4.90;;;4.13;;
30147;SDS011;16960;49.404;8.248;2023-09-07T09:47:07;4.80;;;4.40;;
30147;SDS011;16960;49.404;8.248;2023-09-07T09:49:35;5.30;;;4.77;;
30147;SDS011;16960;49.404;8.248;2023-09-07T09:52:03;4.63;;;4.23;;
30147;SDS011;16960;49.404;8.248;2023-09-07T09:54:32;4.77;;;4.37;;
30147;SDS011;16960;49.404;8.248;2023-09-07T09:57:01;5.07;;;4.67;;
30147;SDS011;16960;49.404;8.248;2023-09-07T09:59:29;4.33;;;4.03;;
30147;SDS011;16960;49.404;8.248;2023-09-07T10:01:56;4.37;;;3.97;;
30147;SDS011;16960;49.404;8.248;2023-09-07T10:04:25;5.10;;;4.70;;
30147;SDS011;16960;49.404;8.248;2023-09-07T10:06:54;4.67;;;4.27;;
30147;SDS011;16960;49.404;8.248;2023-09-07T10:09:22;4.80;;;4.40;;
30147;SDS011;16960;49.404;8.248;2023-09-07T10:11:52;5.00;;;4.30;;
30147;SDS011;16960;49.404;8.248;2023-09-07T10:14:20;4.23;;;3.93;;
30147;SDS011;16960;49.404;8.248;2023-09-07T10:16:48;4.70;;;4.30;;
30147;SDS011;16960;49.404;8.248;2023-09-07T10:19:18;4.23;;;3.93;;
30147;SDS011;16960;49.404;8.248;2023-09-07T10:21:46;5.53;;;4.50;;
30147;SDS011;16960;49.404;8.248;2023-09-07T10:24:23;6.17;;;4.60;;
30147;SDS011;16960;49.404;8.248;2023-09-07T10:26:58;5.30;;;4.20;;
30147;SDS011;16960;49.404;8.248;2023-09-07T10:29:26;3.93;;;3.60;;
30147;SDS011;16960;49.404;8.248;2023-09-07T10:31:54;4.93;;;4.20;;
30147;SDS011;16960;49.404;8.248;2023-09-07T10:34:21;4.70;;;4.30;;
30147;SDS011;16960;49.404;8.248;2023-09-07T10:37:00;4.77;;;4.20;;
30147;SDS011;16960;49.404;8.248;2023-09-07T10:39:29;4.10;;;3.80;;
30147;SDS011;16960;49.404;8.248;2023-09-07T10:41:58;4.50;;;4.10;;
30147;SDS011;16960;49.404;8.248;2023-09-07T10:44:25;4.53;;;3.80;;
30147;SDS011;16960;49.404;8.248;2023-09-07T10:46:54;4.40;;;3.93;;
30147;SDS011;16960;49.404;8.248;2023-09-07T10:49:23;4.60;;;3.90;;
30147;SDS011;16960;49.404;8.248;2023-09-07T10:51:50;4.27;;;3.93;;
30147;SDS011;16960;49.404;8.248;2023-09-07T10:54:17;3.70;;;3.40;;
30147;SDS011;16960;49.404;8.248;2023-09-07T10:56:49;4.27;;;3.97;;
30147;SDS011;16960;49.404;8.248;2023-09-07T10:59:16;4.70;;;4.30;;
30147;SDS011;16960;49.404;8.248;2023-09-07T11:01:44;4.23;;;3.83;;
30147;SDS011;16960;49.404;8.248;2023-09-07T11:04:12;4.60;;;4.27;;
30147;SDS011;16960;49.404;8.248;2023-09-07T11:06:40;4.90;;;4.00;;
30147;SDS011;16960;49.404;8.248;2023-09-07T11:09:08;4.40;;;4.00;;
30147;SDS011;16960;49.404;8.248;2023-09-07T11:11:35;4.07;;;3.77;;
30147;SDS011;16960;49.404;8.248;2023-09-07T11:14:03;4.57;;;4.17;;
30147;SDS011;16960;49.404;8.248;2023-09-07T11:16:33;6.10;;;4.10;;
30147;SDS011;16960;49.404;8.248;2023-09-07T11:19:03;4.43;;;4.03;;
30147;SDS011;16960;49.404;8.248;2023-09-07T11:21:33;4.13;;;3.83;;
30147;SDS011;16960;49.404;8.248;2023-09-07T11:24:01;4.20;;;3.80;;
30147;SDS011;16960;49.404;8.248;2023-09-07T11:26:29;4.40;;;3.83;;
30147;SDS011;16960;49.404;8.248;2023-09-07T11:29:07;4.40;;;3.50;;
30147;SDS011;16960;49.404;8.248;2023-09-07T11:31:34;3.87;;;3.57;;
30147;SDS011;16960;49.404;8.248;2023-09-07T11:34:00;4.97;;;3.50;;
30147;SDS011;16960;49.404;8.248;2023-09-07T11:36:29;4.20;;;3.80;;
30147;SDS011;16960;49.404;8.248;2023-09-07T11:38:57;4.40;;;4.10;;
30147;SDS011;16960;49.404;8.248;2023-09-07T11:41:24;4.13;;;3.77;;
30147;SDS011;16960;49.404;8.248;2023-09-07T11:43:51;3.90;;;3.60;;
30147;SDS011;16960;49.404;8.248;2023-09-07T11:46:18;4.60;;;3.60;;
30147;SDS011;16960;49.404;8.248;2023-09-07T11:48:45;3.80;;;3.50;;
30147;SDS011;16960;49.404;8.248;2023-09-07T11:51:11;3.60;;;3.30;;
30147;SDS011;16960;49.404;8.248;2023-09-07T11:53:38;3.27;;;3.07;;
30147;SDS011;16960;49.404;8.248;2023-09-07T11:56:06;4.00;;;3.70;;
30147;SDS011;16960;49.404;8.248;2023-09-07T11:58:33;4.47;;;3.73;;
30147;SDS011;16960;49.404;8.248;2023-09-07T12:01:01;4.07;;;3.73;;
30147;SDS011;16960;49.404;8.248;2023-09-07T12:03:29;3.90;;;3.57;;
30147;SDS011;16960;49.404;8.248;2023-09-07T12:05:58;4.03;;;3.67;;
30147;SDS011;16960;49.404;8.248;2023-09-07T12:08:25;3.67;;;3.37;;
30147;SDS011;16960;49.404;8.248;2023-09-07T12:10:52;3.90;;;3.60;;
30147;SDS011;16960;49.404;8.248;2023-09-07T12:13:20;4.33;;;4.03;;
30147;SDS011;16960;49.404;8.248;2023-09-07T12:15:47;4.20;;;3.80;;
30147;SDS011;16960;49.404;8.248;2023-09-07T12:18:14;3.37;;;3.10;;
30147;SDS011;16960;49.404;8.248;2023-09-07T12:20:41;3.83;;;3.53;;
30147;SDS011;16960;49.404;8.248;2023-09-07T12:23:09;3.03;;;2.83;;
30147;SDS011;16960;49.404;8.248;2023-09-07T12:25:36;3.90;;;3.50;;
30147;SDS011;16960;49.404;8.248;2023-09-07T12:28:03;5.40;;;3.40;;
30147;SDS011;16960;49.404;8.248;2023-09-07T12:30:32;4.80;;;4.30;;
30147;SDS011;16960;49.404;8.248;2023-09-07T12:32:59;3.40;;;3.10;;
30147;SDS011;16960;49.404;8.248;2023-09-07T12:35:25;3.70;;;3.40;;
30147;SDS011;16960;49.404;8.248;2023-09-07T12:37:52;3.80;;;3.43;;
30147;SDS011;16960;49.404;8.248;2023-09-07T12:40:19;7.57;;;3.30;;
30147;SDS011;16960;49.404;8.248;2023-09-07T12:42:47;3.83;;;3.53;;
30147;SDS011;16960;49.404;8.248;2023-09-07T12:45:14;4.43;;;3.80;;
30147;SDS011;16960;49.404;8.248;2023-09-07T12:47:42;9.70;;;3.90;;
30147;SDS011;16960;49.404;8.248;2023-09-07T12:50:10;3.80;;;3.40;;
30147;SDS011;16960;49.404;8.248;2023-09-07T12:52:37;3.10;;;2.90;;
30147;SDS011;16960;49.404;8.248;2023-09-07T12:55:04;3.40;;;3.10;;
30147;SDS011;16960;49.404;8.248;2023-09-07T12:57:32;3.67;;;3.37;;
30147;SDS011;16960;49.404;8.248;2023-09-07T12:59:59;3.63;;;3.30;;
30147;SDS011;16960;49.404;8.248;2023-09-07T13:02:27;3.67;;;3.40;;
30147;SDS011;16960;49.404;8.248;2023-09-07T13:04:55;3.23;;;3.00;;
30147;SDS011;16960;49.404;8.248;2023-09-07T13:07:22;3.83;;;3.53;;
30147;SDS011;16960;49.404;8.248;2023-09-07T13:09:49;4.27;;;3.87;;
30147;SDS011;16960;49.404;8.248;2023-09-07T13:12:16;3.40;;;3.20;;
30147;SDS011;16960;49.404;8.248;2023-09-07T13:14:43;3.80;;;3.00;;
30147;SDS011;16960;49.404;8.248;2023-09-07T13:17:11;5.03;;;3.00;;
30147;SDS011;16960;49.404;8.248;2023-09-07T13:19:39;3.73;;;3.43;;
30147;SDS011;16960;49.404;8.248;2023-09-07T13:22:08;3.47;;;3.23;;
30147;SDS011;16960;49.404;8.248;2023-09-07T13:24:35;3.73;;;3.43;;
30147;SDS011;16960;49.404;8.248;2023-09-07T13:27:02;3.97;;;3.60;;
30147;SDS011;16960;49.404;8.248;2023-09-07T13:29:29;3.93;;;3.33;;
30147;SDS011;16960;49.404;8.248;2023-09-07T13:31:57;3.77;;;3.37;;
30147;SDS011;16960;49.404;8.248;2023-09-07T13:34:24;3.80;;;3.50;;
30147;SDS011;16960;49.404;8.248;2023-09-07T13:36:51;3.70;;;3.40;;
30147;SDS011;16960;49.404;8.248;2023-09-07T13:39:20;3.90;;;3.60;;
30147;SDS011;16960;49.404;8.248;2023-09-07T13:41:48;3.30;;;3.10;;
30147;SDS011;16960;49.404;8.248;2023-09-07T13:44:15;3.93;;;3.30;;
30147;SDS011;16960;49.404;8.248;2023-09-07T13:46:42;5.73;;;3.33;;
30147;SDS011;16960;49.404;8.248;2023-09-07T13:49:10;3.70;;;3.30;;
30147;SDS011;16960;49.404;8.248;2023-09-07T13:51:37;3.43;;;3.13;;
30147;SDS011;16960;49.404;8.248;2023-09-07T13:54:06;3.80;;;3.50;;
30147;SDS011;16960;49.404;8.248;2023-09-07T13:56:35;3.67;;;3.37;;
30147;SDS011;16960;49.404;8.248;2023-09-07T13:59:02;3.77;;;3.47;;
30147;SDS011;16960;49.404;8.248;2023-09-07T14:01:29;3.30;;;3.10;;
30147;SDS011;16960;49.404;8.248;2023-09-07T14:03:56;3.90;;;3.60;;
30147;SDS011;16960;49.404;8.248;2023-09-07T14:06:23;3.73;;;3.43;;
30147;SDS011;16960;49.404;8.248;2023-09-07T14:08:50;3.33;;;3.10;;
30147;SDS011;16960;49.404;8.248;2023-09-07T14:11:17;3.60;;;3.30;;
30147;SDS011;16960;49.404;8.248;2023-09-07T14:13:47;2.90;;;2.70;;
30147;SDS011;16960;49.404;8.248;2023-09-07T14:16:16;3.37;;;2.77;;
30147;SDS011;16960;49.404;8.248;2023-09-07T14:18:43;3.70;;;3.40;;
30147;SDS011;16960;49.404;8.248;2023-09-07T14:21:10;3.70;;;3.03;;
30147;SDS011;16960;49.404;8.248;2023-09-07T14:23:39;3.50;;;3.20;;
30147;SDS011;16960;49.404;8.248;2023-09-07T14:26:07;4.53;;;3.43;;
30147;SDS011;16960;49.404;8.248;2023-09-07T14:28:35;3.60;;;2.70;;
30147;SDS011;16960;49.404;8.248;2023-09-07T14:31:04;2.97;;;2.73;;
30147;SDS011;16960;49.404;8.248;2023-09-07T14:33:32;3.50;;;3.10;;
30147;SDS011;16960;49.404;8.248;2023-09-07T14:36:02;3.10;;;2.83;;
30147;SDS011;16960;49.404;8.248;2023-09-07T14:38:29;3.37;;;3.07;;
30147;SDS011;16960;49.404;8.248;2023-09-07T14:40:59;3.43;;;3.13;;
30147;SDS011;16960;49.404;8.248;2023-09-07T14:43:26;3.00;;;2.80;;
30147;SDS011;16960;49.404;8.248;2023-09-07T14:45:53;3.73;;;3.43;;
30147;SDS011;16960;49.404;8.248;2023-09-07T14:48:21;3.50;;;3.30;;
30147;SDS011;16960;49.404;8.248;2023-09-07T14:50:48;3.23;;;3.00;;